Terminal Aerodrome Forecast
Issued by NWS Paducah, KY

Home | Current Version | Previous Version | Text Only | Print | Product List | Glossary Off
Versions: 1 2 3 4 5 6 7 8 9 10 11 12 13 14 15

000
FTUS43 KPAH 191700
TAFEVV
TAF
KEVV 191720Z 1918/2018 05006KT P6SM SCT015 BKN040
     FM200100 04003KT P6SM SCT005 OVC015
     FM200400 VRB02KT 4SM BR OVC005
     FM200700 VRB02KT 2SM BR OVC004
     FM201500 VRB03KT P6SM BKN012=

USA.gov is the U.S. government's official web portal to all federal, state and local government web resources and services.